Wetterdaten: Woche 11.06.07 - 17.06.07 (KW24)
Datum Zeit Temperatur Luftfeuchte Luftdruck Niederschlag Wind Richtung Sonnenschein Solar Taupunkt Windchill Windben
11.06.2007 00:00 16.5 C 96 % 1013.7 hPa 0.0 l/m 0.1 km/h (0 Bft) O-SO 0.00 h 0 W/m 15.9 C 16.5 C 0.3 km/h (0 Bft)
11.06.2007 01:00 16.1 C 96 % 1013.6 hPa 0.0 l/m 0.0 km/h (0 Bft) N 0.00 h 0 W/m 15.5 C 16.1 C 0.0 km/h (0 Bft)
11.06.2007 02:00 15.3 C 98 % 1013.7 hPa 0.2 l/m 0.0 km/h (0 Bft) N 0.00 h 0 W/m 15.0 C 15.3 C 0.0 km/h (0 Bft)
11.06.2007 03:00 14.7 C 99 % 1013.7 hPa 0.0 l/m 0.0 km/h (0 Bft) N 0.00 h 0 W/m 14.5 C 14.7 C 0.0 km/h (0 Bft)
11.06.2007 04:00 14.6 C 99 % 1013.2 hPa 0.0 l/m 0.0 km/h (0 Bft) N 0.00 h 0 W/m 14.4 C 14.6 C 0.0 km/h (0 Bft)
11.06.2007 05:00 14.7 C 100 % 1013.0 hPa 0.0 l/m 0.0 km/h (0 Bft) N 0.00 h 14 W/m 14.7 C 14.7 C 0.0 km/h (0 Bft)
11.06.2007 06:00 15.1 C 100 % 1013.0 hPa 0.0 l/m 0.0 km/h (0 Bft) N 0.13 h 57 W/m 15.1 C 15.1 C 0.0 km/h (0 Bft)
11.06.2007 07:00 15.7 C 100 % 1013.3 hPa 0.2 l/m 0.0 km/h (0 Bft) N 0.00 h 52 W/m 15.7 C 15.7 C 0.0 km/h (0 Bft)
11.06.2007 08:00 16.2 C 99 % 1013.8 hPa 0.0 l/m 0.0 km/h (0 Bft) N 0.00 h 105 W/m 16.1 C 16.2 C 0.0 km/h (0 Bft)
11.06.2007 09:00 16.9 C 97 % 1013.8 hPa 0.0 l/m 0.0 km/h (0 Bft) N 0.00 h 151 W/m 16.5 C 16.9 C 0.0 km/h (0 Bft)
11.06.2007 10:00 17.6 C 96 % 1014.4 hPa 0.0 l/m 2.1 km/h (1 Bft) W-SW 0.00 h 161 W/m 17.0 C 17.6 C 4.6 km/h (1 Bft)
11.06.2007 11:00 18.3 C 94 % 1014.6 hPa 0.4 l/m 2.1 km/h (1 Bft) SW 0.00 h 232 W/m 17.4 C 18.3 C 4.8 km/h (1 Bft)
11.06.2007 12:00 19.0 C 92 % 1014.6 hPa 0.0 l/m 3.4 km/h (1 Bft) S-SW 0.00 h 376 W/m 17.7 C 19.0 C 7.2 km/h (2 Bft)
11.06.2007 13:00 21.0 C 83 % 1014.4 hPa 0.0 l/m 4.0 km/h (1 Bft) S-SO 0.43 h 608 W/m 18.0 C 21.0 C 7.5 km/h (2 Bft)
11.06.2007 14:00 22.4 C 76 % 1013.7 hPa 0.0 l/m 4.7 km/h (1 Bft) S-SO 0.60 h 726 W/m 18.0 C 22.4 C 9.8 km/h (2 Bft)
11.06.2007 15:00 23.3 C 72 % 1012.9 hPa 0.0 l/m 4.6 km/h (1 Bft) S-SO 1.00 h 722 W/m 18.0 C 23.3 C 8.9 km/h (2 Bft)
11.06.2007 16:00 22.4 C 74 % 1012.3 hPa 0.0 l/m 2.8 km/h (1 Bft) W-SW 0.00 h 265 W/m 17.5 C 22.4 C 5.7 km/h (1 Bft)
11.06.2007 17:00 22.2 C 74 % 1011.9 hPa 0.0 l/m 6.8 km/h (2 Bft) W 0.23 h 270 W/m 17.4 C 22.2 C 10.7 km/h (2 Bft)
11.06.2007 18:00 21.8 C 75 % 1012.3 hPa 0.0 l/m 8.5 km/h (2 Bft) W 0.25 h 187 W/m 17.0 C 21.8 C 13.0 km/h (3 Bft)
11.06.2007 19:00 21.5 C 76 % 1012.3 hPa 0.0 l/m 5.3 km/h (1 Bft) W 0.38 h 151 W/m 17.1 C 21.5 C 7.9 km/h (2 Bft)
11.06.2007 20:00 20.3 C 80 % 1012.7 hPa 0.0 l/m 2.6 km/h (1 Bft) W-SW 0.00 h 31 W/m 16.6 C 20.3 C 4.8 km/h (1 Bft)
11.06.2007 21:00 19.9 C 81 % 1012.9 hPa 0.0 l/m 0.1 km/h (0 Bft) W-SW 0.00 h 5 W/m 16.5 C 19.9 C 0.7 km/h (0 Bft)
11.06.2007 22:00 18.5 C 79 % 1013.6 hPa 0.4 l/m 5.2 km/h (1 Bft) W 0.00 h 0 W/m 14.8 C 18.5 C 8.5 km/h (2 Bft)
11.06.2007 23:00 17.3 C 91 % 1013.6 hPa 1.4 l/m 1.5 km/h (1 Bft) O 0.00 h 0 W/m 15.8 C 17.3 C 3.1 km/h (1 Bft)
12.06.2007 00:00 17.3 C 95 % 1013.5 hPa 1.0 l/m 1.0 km/h (0 Bft) S 0.00 h 0 W/m 16.5 C 17.3 C 2.8 km/h (1 Bft)
12.06.2007 01:00 16.8 C 97 % 1013.5 hPa 0.0 l/m 0.7 km/h (0 Bft) S 0.00 h 0 W/m 16.3 C 16.8 C 2.4 km/h (1 Bft)
12.06.2007 02:00 16.6 C 97 % 1013.1 hPa 1.2 l/m 2.2 km/h (1 Bft) S-SO 0.00 h 0 W/m 16.1 C 16.6 C 4.4 km/h (1 Bft)
12.06.2007 03:00 16.3 C 97 % 1012.7 hPa 0.0 l/m 2.9 km/h (1 Bft) S-SO 0.00 h 0 W/m 15.8 C 16.3 C 5.5 km/h (1 Bft)
12.06.2007 04:00 15.9 C 96 % 1012.8 hPa 0.0 l/m 2.0 km/h (1 Bft) S-SO 0.00 h 0 W/m 15.4 C 15.9 C 4.1 km/h (1 Bft)
12.06.2007 05:00 15.8 C 97 % 1012.8 hPa 0.2 l/m 1.7 km/h (1 Bft) SO 0.00 h 11 W/m 15.3 C 15.8 C 3.4 km/h (1 Bft)
12.06.2007 06:00 16.2 C 97 % 1012.7 hPa 0.0 l/m 1.2 km/h (1 Bft) S-SO 0.00 h 47 W/m 15.7 C 16.2 C 2.8 km/h (1 Bft)
12.06.2007 07:00 17.0 C 95 % 1012.4 hPa 0.0 l/m 1.4 km/h (1 Bft) S-SO 0.28 h 134 W/m 16.2 C 17.0 C 4.0 km/h (1 Bft)
12.06.2007 08:00 18.1 C 92 % 1012.6 hPa 0.0 l/m 2.0 km/h (1 Bft) S-SO 0.33 h 275 W/m 16.7 C 18.1 C 4.7 km/h (1 Bft)
12.06.2007 09:00 19.3 C 86 % 1012.7 hPa 0.0 l/m 2.8 km/h (1 Bft) S 0.25 h 340 W/m 16.8 C 19.3 C 6.2 km/h (2 Bft)
12.06.2007 10:00 20.0 C 82 % 1012.7 hPa 0.0 l/m 2.5 km/h (1 Bft) W-SW 0.10 h 358 W/m 16.8 C 20.0 C 5.0 km/h (1 Bft)
12.06.2007 11:00 21.9 C 74 % 1012.1 hPa 0.0 l/m 2.6 km/h (1 Bft) S 0.58 h 618 W/m 17.1 C 21.9 C 5.0 km/h (1 Bft)
12.06.2007 12:00 23.2 C 65 % 1011.5 hPa 0.0 l/m 5.0 km/h (1 Bft) W-SW 0.87 h 777 W/m 16.2 C 23.2 C 8.9 km/h (2 Bft)
12.06.2007 13:00 24.9 C 58 % 1010.8 hPa 0.0 l/m 5.6 km/h (1 Bft) W 0.90 h 864 W/m 15.9 C 24.9 C 9.2 km/h (2 Bft)
12.06.2007 14:00 25.9 C 54 % 1010.1 hPa 0.0 l/m 4.8 km/h (1 Bft) W-SW 1.00 h 833 W/m 15.9 C 25.9 C 8.4 km/h (2 Bft)
12.06.2007 15:00 26.4 C 52 % 1009.4 hPa 0.0 l/m 8.8 km/h (2 Bft) W 0.90 h 760 W/m 15.6 C 26.4 C 14.3 km/h (3 Bft)
12.06.2007 16:00 23.9 C 60 % 1009.5 hPa 0.0 l/m 7.7 km/h (2 Bft) NW 0.23 h 390 W/m 15.6 C 23.9 C 12.2 km/h (2 Bft)
12.06.2007 17:00 24.3 C 56 % 1009.3 hPa 0.0 l/m 9.2 km/h (2 Bft) W 0.43 h 362 W/m 14.9 C 24.3 C 14.2 km/h (3 Bft)
12.06.2007 18:00 24.2 C 58 % 1009.3 hPa 0.0 l/m 9.2 km/h (2 Bft) W 0.68 h 317 W/m 15.5 C 24.2 C 14.0 km/h (3 Bft)
12.06.2007 19:00 23.7 C 58 % 1009.3 hPa 0.0 l/m 7.0 km/h (2 Bft) W-NW 0.50 h 171 W/m 15.0 C 23.7 C 11.1 km/h (2 Bft)
12.06.2007 20:00 21.9 C 66 % 1009.7 hPa 0.0 l/m 6.8 km/h (2 Bft) W 0.00 h 23 W/m 15.4 C 21.9 C 10.4 km/h (2 Bft)
12.06.2007 21:00 20.7 C 73 % 1010.0 hPa 0.0 l/m 6.9 km/h (2 Bft) W 0.00 h 7 W/m 15.5 C 20.7 C 11.2 km/h (2 Bft)
12.06.2007 22:00 19.8 C 76 % 1010.6 hPa 0.0 l/m 0.9 km/h (0 Bft) W-SW 0.00 h 0 W/m 15.5 C 19.8 C 2.5 km/h (1 Bft)
12.06.2007 23:00 19.4 C 82 % 1010.8 hPa 0.0 l/m 0.6 km/h (0 Bft) S-SO 0.00 h 0 W/m 16.2 C 19.4 C 1.8 km/h (1 Bft)
13.06.2007 00:00 19.1 C 83 % 1010.6 hPa 0.0 l/m 0.2 km/h (0 Bft) SW 0.00 h 0 W/m 16.2 C 19.1 C 0.7 km/h (0 Bft)
13.06.2007 01:00 18.8 C 84 % 1010.2 hPa 0.0 l/m 0.4 km/h (0 Bft) S-SO 0.00 h 0 W/m 16.1 C 18.8 C 1.5 km/h (1 Bft)
13.06.2007 02:00 18.1 C 89 % 1009.7 hPa 0.0 l/m 0.1 km/h (0 Bft) S-SO 0.00 h 0 W/m 16.2 C 18.1 C 0.9 km/h (0 Bft)
13.06.2007 03:00 17.5 C 92 % 1009.5 hPa 0.0 l/m 2.3 km/h (1 Bft) S-SO 0.00 h 0 W/m 16.2 C 17.5 C 3.5 km/h (1 Bft)
13.06.2007 04:00 17.2 C 92 % 1009.3 hPa 0.0 l/m 0.5 km/h (0 Bft) O-SO 0.00 h 0 W/m 16.0 C 17.2 C 1.1 km/h (0 Bft)
13.06.2007 05:00 16.6 C 94 % 1009.5 hPa 0.2 l/m 1.1 km/h (0 Bft) O-SO 0.03 h 11 W/m 15.7 C 16.6 C 2.0 km/h (1 Bft)
13.06.2007 06:00 16.4 C 95 % 1009.8 hPa 0.0 l/m 1.6 km/h (1 Bft) SO 0.00 h 35 W/m 15.6 C 16.4 C 2.7 km/h (1 Bft)
13.06.2007 07:00 17.3 C 93 % 1009.8 hPa 0.0 l/m 0.2 km/h (0 Bft) SO 0.00 h 72 W/m 16.2 C 17.3 C 1.0 km/h (0 Bft)
13.06.2007 08:00 18.3 C 89 % 1009.7 hPa 0.0 l/m 0.4 km/h (0 Bft) SO 0.13 h 200 W/m 16.5 C 18.3 C 1.2 km/h (1 Bft)
13.06.2007 09:00 19.5 C 82 % 1009.8 hPa 0.0 l/m 1.2 km/h (1 Bft) O-SO 0.40 h 340 W/m 16.3 C 19.5 C 2.8 km/h (1 Bft)
13.06.2007 10:00 21.5 C 73 % 1009.3 hPa 0.0 l/m 1.6 km/h (1 Bft) O-SO 0.90 h 617 W/m 16.4 C 21.5 C 3.5 km/h (1 Bft)
13.06.2007 11:00 23.0 C 67 % 1008.9 hPa 0.0 l/m 2.5 km/h (1 Bft) W 0.80 h 686 W/m 16.5 C 23.0 C 4.4 km/h (1 Bft)
13.06.2007 12:00 24.2 C 62 % 1008.6 hPa 0.0 l/m 3.5 km/h (1 Bft) W 0.68 h 689 W/m 16.3 C 24.2 C 5.7 km/h (1 Bft)
13.06.2007 13:00 25.7 C 54 % 1008.2 hPa 0.0 l/m 4.1 km/h (1 Bft) W-NW 0.95 h 831 W/m 15.8 C 25.7 C 6.5 km/h (2 Bft)
13.06.2007 14:00 26.8 C 51 % 1007.6 hPa 0.0 l/m 4.7 km/h (1 Bft) W 1.00 h 836 W/m 15.9 C 26.8 C 7.7 km/h (2 Bft)
13.06.2007 15:00 27.7 C 47 % 1007.4 hPa 0.0 l/m 5.6 km/h (1 Bft) W-NW 1.00 h 774 W/m 15.3 C 27.7 C 8.7 km/h (2 Bft)
13.06.2007 16:00 28.0 C 46 % 1007.0 hPa 0.0 l/m 6.9 km/h (2 Bft) W 1.00 h 652 W/m 15.2 C 28.0 C 10.6 km/h (2 Bft)
13.06.2007 17:00 27.1 C 47 % 1006.6 hPa 0.0 l/m 8.3 km/h (2 Bft) W 1.00 h 467 W/m 14.9 C 27.1 C 12.5 km/h (3 Bft)
13.06.2007 18:00 26.5 C 49 % 1006.5 hPa 0.0 l/m 6.5 km/h (2 Bft) W 0.90 h 320 W/m 14.8 C 26.5 C 10.2 km/h (2 Bft)
13.06.2007 19:00 25.3 C 52 % 1006.7 hPa 0.0 l/m 4.0 km/h (1 Bft) W 0.47 h 165 W/m 14.6 C 25.3 C 6.6 km/h (2 Bft)
13.06.2007 20:00 23.8 C 58 % 1007.0 hPa 0.0 l/m 0.6 km/h (0 Bft) SO 0.08 h 68 W/m 14.9 C 23.8 C 1.7 km/h (1 Bft)
13.06.2007 21:00 21.7 C 69 % 1007.4 hPa 0.0 l/m 3.6 km/h (1 Bft) SO 0.00 h 12 W/m 15.6 C 21.7 C 5.0 km/h (1 Bft)
13.06.2007 22:00 19.6 C 79 % 1008.1 hPa 0.0 l/m 3.4 km/h (1 Bft) SO 0.00 h 0 W/m 15.9 C 19.6 C 4.6 km/h (1 Bft)
13.06.2007 23:00 19.0 C 80 % 1008.1 hPa 0.0 l/m 4.1 km/h (1 Bft) O-SO 0.00 h 0 W/m 15.4 C 19.0 C 5.8 km/h (2 Bft)
14.06.2007 00:00 17.9 C 84 % 1008.0 hPa 0.0 l/m 3.7 km/h (1 Bft) O-SO 0.00 h 0 W/m 15.2 C 17.9 C 5.1 km/h (1 Bft)
14.06.2007 01:00 17.4 C 87 % 1007.7 hPa 0.0 l/m 0.5 km/h (0 Bft) O-NO 0.00 h 0 W/m 15.2 C 17.4 C 1.2 km/h (1 Bft)
14.06.2007 02:00 16.7 C 90 % 1007.7 hPa 0.0 l/m 2.0 km/h (1 Bft) O 0.00 h 0 W/m 15.0 C 16.7 C 2.9 km/h (1 Bft)
14.06.2007 03:00 15.9 C 92 % 1007.6 hPa 0.0 l/m 1.8 km/h (1 Bft) O 0.00 h 0 W/m 14.7 C 15.9 C 2.7 km/h (1 Bft)
14.06.2007 04:00 15.6 C 93 % 1007.6 hPa 0.0 l/m 1.7 km/h (1 Bft) O 0.00 h 0 W/m 14.5 C 15.6 C 2.5 km/h (1 Bft)
14.06.2007 05:00 15.2 C 95 % 1007.8 hPa 0.0 l/m 0.0 km/h (0 Bft) N 0.00 h 10 W/m 14.4 C 15.2 C 0.0 km/h (0 Bft)
14.06.2007 06:00 15.3 C 96 % 1007.8 hPa 0.0 l/m 0.0 km/h (0 Bft) N 0.00 h 34 W/m 14.5 C 15.3 C 0.0 km/h (0 Bft)
14.06.2007 07:00 16.6 C 93 % 1008.2 hPa 0.0 l/m 0.0 km/h (0 Bft) N 0.60 h 178 W/m 15.4 C 16.6 C 0.0 km/h (0 Bft)
14.06.2007 08:00 18.9 C 84 % 1007.9 hPa 0.0 l/m 0.0 km/h (0 Bft) N 1.00 h 357 W/m 16.1 C 18.9 C 0.0 km/h (0 Bft)
14.06.2007 09:00 21.0 C 74 % 1007.7 hPa 0.0 l/m 0.0 km/h (0 Bft) N 1.00 h 508 W/m 16.3 C 21.0 C 0.0 km/h (0 Bft)
14.06.2007 10:00 23.2 C 68 % 1007.1 hPa 0.0 l/m 0.0 km/h (0 Bft) N 1.00 h 658 W/m 16.8 C 23.2 C 0.0 km/h (0 Bft)
14.06.2007 11:00 25.2 C 63 % 1006.7 hPa 0.0 l/m 4.1 km/h (1 Bft) N-NW 1.00 h 774 W/m 17.5 C 25.2 C 6.5 km/h (2 Bft)
14.06.2007 12:00 26.6 C 59 % 1006.2 hPa 0.0 l/m 4.1 km/h (1 Bft) N-NW 0.83 h 718 W/m 17.9 C 26.6 C 6.2 km/h (2 Bft)
14.06.2007 13:00 28.4 C 51 % 1005.6 hPa 0.0 l/m 3.4 km/h (1 Bft) W-NW 0.93 h 839 W/m 17.2 C 28.4 C 5.7 km/h (1 Bft)
14.06.2007 14:00 29.3 C 41 % 1005.0 hPa 0.0 l/m 2.8 km/h (1 Bft) O 0.90 h 786 W/m 14.6 C 29.3 C 4.9 km/h (1 Bft)
14.06.2007 15:00 29.3 C 39 % 1004.3 hPa 0.0 l/m 2.9 km/h (1 Bft) W-NW 0.68 h 661 W/m 13.8 C 29.3 C 5.0 km/h (1 Bft)
14.06.2007 16:00 28.6 C 40 % 1003.6 hPa 0.0 l/m 2.0 km/h (1 Bft) SW 0.35 h 412 W/m 13.7 C 28.6 C 4.0 km/h (1 Bft)
14.06.2007 17:00 30.0 C 39 % 1002.9 hPa 0.0 l/m 4.1 km/h (1 Bft) N-NW 0.93 h 496 W/m 14.5 C 30.0 C 6.4 km/h (2 Bft)
14.06.2007 18:00 27.1 C 51 % 1003.1 hPa 0.0 l/m 9.6 km/h (2 Bft) W 0.22 h 143 W/m 15.9 C 27.1 C 15.1 km/h (3 Bft)
14.06.2007 19:00 24.6 C 62 % 1003.1 hPa 0.0 l/m 7.9 km/h (2 Bft) W-NW 0.20 h 101 W/m 16.8 C 24.6 C 12.4 km/h (3 Bft)
14.06.2007 20:00 22.3 C 64 % 1004.6 hPa 0.6 l/m 17.4 km/h (3 Bft) W 0.00 h 7 W/m 15.0 C 22.3 C 27.3 km/h (4 Bft)
14.06.2007 21:00 17.5 C 84 % 1005.8 hPa 3.2 l/m 10.0 km/h (2 Bft) W-NW 0.00 h 0 W/m 14.8 C 17.5 C 16.5 km/h (3 Bft)
14.06.2007 22:00 17.1 C 91 % 1006.6 hPa 2.4 l/m 6.0 km/h (2 Bft) O-SO 0.00 h 0 W/m 15.7 C 17.1 C 10.6 km/h (2 Bft)
14.06.2007 23:00 16.7 C 96 % 1006.2 hPa 0.0 l/m 1.4 km/h (1 Bft) O-SO 0.00 h 0 W/m 16.1 C 16.7 C 2.8 km/h (1 Bft)
15.06.2007 00:00 16.7 C 98 % 1006.0 hPa 1.0 l/m 2.3 km/h (1 Bft) O-SO 0.00 h 0 W/m 16.3 C 16.7 C 4.2 km/h (1 Bft)
15.06.2007 01:00 16.8 C 98 % 1004.7 hPa 0.0 l/m 2.5 km/h (1 Bft) W-NW 0.00 h 0 W/m 16.5 C 16.8 C 4.4 km/h (1 Bft)
15.06.2007 02:00 16.7 C 98 % 1005.0 hPa 0.0 l/m 3.3 km/h (1 Bft) SO 0.00 h 0 W/m 16.5 C 16.7 C 5.2 km/h (1 Bft)
15.06.2007 03:00 16.7 C 98 % 1004.5 hPa 0.0 l/m 0.7 km/h (0 Bft) SO 0.00 h 0 W/m 16.4 C 16.7 C 1.8 km/h (1 Bft)
15.06.2007 04:00 16.6 C 99 % 1004.9 hPa 0.0 l/m 3.0 km/h (1 Bft) O-SO 0.00 h 0 W/m 16.5 C 16.6 C 4.9 km/h (1 Bft)
15.06.2007 05:00 16.7 C 100 % 1006.2 hPa 3.6 l/m 2.2 km/h (1 Bft) W-SW 0.00 h 0 W/m 16.6 C 16.7 C 4.2 km/h (1 Bft)
15.06.2007 06:00 16.3 C 98 % 1006.2 hPa 3.4 l/m 3.4 km/h (1 Bft) O-SO 0.00 h 44 W/m 15.9 C 16.3 C 4.8 km/h (1 Bft)
15.06.2007 07:00 16.8 C 97 % 1006.1 hPa 0.0 l/m 0.0 km/h (0 Bft) O-SO 0.00 h 110 W/m 16.4 C 16.8 C 0.4 km/h (0 Bft)
15.06.2007 08:00 17.6 C 95 % 1006.6 hPa 0.2 l/m 1.1 km/h (1 Bft) O-SO 0.02 h 131 W/m 16.7 C 17.6 C 3.1 km/h (1 Bft)
15.06.2007 09:00 17.4 C 95 % 1006.6 hPa 0.0 l/m 0.9 km/h (0 Bft) W-SW 0.00 h 110 W/m 16.7 C 17.4 C 3.1 km/h (1 Bft)
15.06.2007 10:00 17.3 C 95 % 1006.7 hPa 0.0 l/m 0.8 km/h (0 Bft) S-SO 0.00 h 79 W/m 16.4 C 17.3 C 2.8 km/h (1 Bft)
15.06.2007 11:00 17.4 C 93 % 1006.6 hPa 0.0 l/m 1.5 km/h (1 Bft) S-SO 0.00 h 112 W/m 16.3 C 17.4 C 3.9 km/h (1 Bft)
15.06.2007 12:00 17.9 C 94 % 1006.6 hPa 0.2 l/m 0.7 km/h (0 Bft) SW 0.00 h 161 W/m 17.0 C 17.9 C 2.6 km/h (1 Bft)
15.06.2007 13:00 17.2 C 97 % 1006.8 hPa 3.2 l/m 5.1 km/h (1 Bft) W-NW 0.00 h 88 W/m 16.7 C 17.2 C 8.4 km/h (2 Bft)
15.06.2007 14:00 15.5 C 98 % 1007.7 hPa 6.0 l/m 7.5 km/h (2 Bft) W 0.00 h 87 W/m 15.2 C 15.5 C 11.2 km/h (2 Bft)
15.06.2007 15:00 14.6 C 98 % 1008.5 hPa 1.0 l/m 13.8 km/h (3 Bft) W 0.00 h 125 W/m 14.2 C 14.6 C 22.0 km/h (4 Bft)
15.06.2007 16:00 14.4 C 96 % 1009.5 hPa 1.8 l/m 4.1 km/h (1 Bft) S-SO 0.00 h 58 W/m 13.7 C 14.4 C 7.8 km/h (2 Bft)
15.06.2007 17:00 14.7 C 97 % 1010.3 hPa 1.6 l/m 1.8 km/h (1 Bft) S-SO 0.00 h 59 W/m 14.3 C 14.7 C 4.6 km/h (1 Bft)
15.06.2007 18:00 14.6 C 97 % 1010.4 hPa 0.0 l/m 2.2 km/h (1 Bft) S-SO 0.00 h 64 W/m 14.2 C 14.6 C 6.0 km/h (2 Bft)
15.06.2007 19:00 14.6 C 95 % 1010.5 hPa 0.0 l/m 1.2 km/h (1 Bft) S-SO 0.00 h 66 W/m 13.8 C 14.6 C 3.5 km/h (1 Bft)
15.06.2007 20:00 14.2 C 90 % 1010.6 hPa 0.0 l/m 3.2 km/h (1 Bft) S-SO 0.00 h 32 W/m 12.6 C 14.2 C 5.3 km/h (1 Bft)
15.06.2007 21:00 13.3 C 92 % 1010.9 hPa 0.0 l/m 1.7 km/h (1 Bft) O-SO 0.02 h 11 W/m 12.0 C 13.3 C 2.9 km/h (1 Bft)
15.06.2007 22:00 12.2 C 95 % 1011.5 hPa 0.0 l/m 0.9 km/h (0 Bft) O-SO 0.00 h 0 W/m 11.4 C 12.2 C 1.7 km/h (1 Bft)
15.06.2007 23:00 12.0 C 97 % 1011.9 hPa 0.0 l/m 1.5 km/h (1 Bft) O-SO 0.00 h 0 W/m 11.5 C 12.0 C 2.3 km/h (1 Bft)
16.06.2007 00:00 12.5 C 96 % 1011.9 hPa 0.0 l/m 0.6 km/h (0 Bft) O 0.00 h 0 W/m 11.8 C 12.5 C 1.4 km/h (1 Bft)
16.06.2007 01:00 12.3 C 97 % 1012.0 hPa 0.0 l/m 1.6 km/h (1 Bft) O-SO 0.00 h 0 W/m 11.8 C 12.3 C 2.7 km/h (1 Bft)
16.06.2007 02:00 12.4 C 97 % 1012.0 hPa 0.0 l/m 0.9 km/h (0 Bft) O-SO 0.00 h 0 W/m 12.0 C 12.4 C 1.5 km/h (1 Bft)
16.06.2007 03:00 12.3 C 98 % 1011.8 hPa 0.0 l/m 0.3 km/h (0 Bft) O 0.00 h 0 W/m 12.0 C 12.3 C 0.9 km/h (0 Bft)
16.06.2007 04:00 12.4 C 98 % 1011.7 hPa 0.2 l/m 1.2 km/h (1 Bft) O-SO 0.00 h 0 W/m 12.1 C 12.4 C 2.2 km/h (1 Bft)
16.06.2007 05:00 12.7 C 98 % 1011.9 hPa 1.0 l/m 0.8 km/h (0 Bft) S-SO 0.00 h 8 W/m 12.5 C 12.7 C 1.9 km/h (1 Bft)
16.06.2007 06:00 13.2 C 99 % 1011.9 hPa 0.0 l/m 0.2 km/h (0 Bft) SO 0.40 h 82 W/m 13.0 C 13.2 C 1.3 km/h (1 Bft)
16.06.2007 07:00 13.9 C 99 % 1012.1 hPa 0.2 l/m 0.4 km/h (0 Bft) SO 0.00 h 80 W/m 13.7 C 13.9 C 1.6 km/h (1 Bft)
16.06.2007 08:00 14.7 C 98 % 1012.4 hPa 0.2 l/m 0.7 km/h (0 Bft) S-SW 0.17 h 221 W/m 14.3 C 14.7 C 2.4 km/h (1 Bft)
16.06.2007 09:00 16.4 C 92 % 1012.3 hPa 0.0 l/m 2.0 km/h (1 Bft) W-SW 0.88 h 543 W/m 15.1 C 16.4 C 4.6 km/h (1 Bft)
16.06.2007 10:00 15.9 C 89 % 1012.3 hPa 1.6 l/m 3.0 km/h (1 Bft) W 0.20 h 260 W/m 14.0 C 15.9 C 5.6 km/h (1 Bft)
16.06.2007 11:00 17.7 C 81 % 1012.3 hPa 0.0 l/m 1.2 km/h (1 Bft) W-SW 1.00 h 787 W/m 14.4 C 17.7 C 2.9 km/h (1 Bft)
16.06.2007 12:00 18.8 C 75 % 1011.7 hPa 0.0 l/m 4.4 km/h (1 Bft) W-NW 0.43 h 610 W/m 14.3 C 18.8 C 7.6 km/h (2 Bft)
16.06.2007 13:00 19.5 C 68 % 1011.4 hPa 0.0 l/m 7.6 km/h (2 Bft) W-NW 0.63 h 663 W/m 13.5 C 19.5 C 11.9 km/h (2 Bft)
16.06.2007 14:00 19.3 C 66 % 1011.3 hPa 0.2 l/m 10.8 km/h (2 Bft) W 0.32 h 427 W/m 12.8 C 19.3 C 16.0 km/h (3 Bft)
16.06.2007 15:00 21.9 C 54 % 1010.5 hPa 0.0 l/m 8.5 km/h (2 Bft) W 1.00 h 776 W/m 12.1 C 21.9 C 13.2 km/h (3 Bft)
16.06.2007 16:00 23.0 C 49 % 1009.8 hPa 0.0 l/m 12.1 km/h (2 Bft) W 1.00 h 666 W/m 11.7 C 23.0 C 18.2 km/h (3 Bft)
16.06.2007 17:00 23.4 C 45 % 1009.3 hPa 0.0 l/m 10.1 km/h (2 Bft) W 1.00 h 523 W/m 10.6 C 23.4 C 15.5 km/h (3 Bft)
16.06.2007 18:00 23.3 C 42 % 1008.8 hPa 0.0 l/m 8.8 km/h (2 Bft) W 1.00 h 361 W/m 9.8 C 23.3 C 13.4 km/h (3 Bft)
16.06.2007 19:00 22.2 C 44 % 1009.1 hPa 0.0 l/m 8.9 km/h (2 Bft) W 1.00 h 202 W/m 9.5 C 22.2 C 12.7 km/h (3 Bft)
16.06.2007 20:00 20.9 C 52 % 1009.3 hPa 0.0 l/m 2.8 km/h (1 Bft) W 0.52 h 76 W/m 10.8 C 20.9 C 4.6 km/h (1 Bft)
16.06.2007 21:00 17.8 C 68 % 1010.0 hPa 0.0 l/m 1.5 km/h (1 Bft) O-SO 0.02 h 12 W/m 11.7 C 17.8 C 2.5 km/h (1 Bft)
16.06.2007 22:00 15.4 C 78 % 1010.6 hPa 0.0 l/m 2.7 km/h (1 Bft) O-SO 0.00 h 0 W/m 11.7 C 15.4 C 4.2 km/h (1 Bft)
16.06.2007 23:00 14.0 C 86 % 1010.7 hPa 0.0 l/m 0.5 km/h (0 Bft) O-SO 0.00 h 0 W/m 11.7 C 14.0 C 1.2 km/h (1 Bft)
17.06.2007 00:00 13.2 C 89 % 1010.8 hPa 0.0 l/m 2.5 km/h (1 Bft) O-SO 0.00 h 0 W/m 11.5 C 13.2 C 3.5 km/h (1 Bft)
17.06.2007 01:00 13.4 C 92 % 1010.7 hPa 0.0 l/m 2.2 km/h (1 Bft) W-NW 0.00 h 0 W/m 12.1 C 13.4 C 3.8 km/h (1 Bft)
17.06.2007 02:00 13.5 C 89 % 1010.8 hPa 0.0 l/m 3.8 km/h (1 Bft) O-SO 0.00 h 0 W/m 11.8 C 13.5 C 5.8 km/h (2 Bft)
17.06.2007 03:00 13.4 C 88 % 1010.9 hPa 0.0 l/m 2.0 km/h (1 Bft) O-SO 0.00 h 0 W/m 11.5 C 13.4 C 3.2 km/h (1 Bft)
17.06.2007 04:00 12.5 C 91 % 1010.8 hPa 0.0 l/m 0.8 km/h (0 Bft) O-SO 0.00 h 0 W/m 11.0 C 12.5 C 1.7 km/h (1 Bft)
17.06.2007 05:00 11.5 C 93 % 1010.9 hPa 0.0 l/m 2.0 km/h (1 Bft) O-SO 0.02 h 10 W/m 10.5 C 11.5 C 2.8 km/h (1 Bft)
17.06.2007 06:00 11.6 C 95 % 1011.3 hPa 0.0 l/m 1.0 km/h (0 Bft) O-SO 0.18 h 52 W/m 10.8 C 11.6 C 1.9 km/h (1 Bft)
17.06.2007 07:00 13.7 C 89 % 1011.4 hPa 0.0 l/m 0.1 km/h (0 Bft) O 0.87 h 201 W/m 11.9 C 13.7 C 0.3 km/h (0 Bft)
17.06.2007 08:00 15.9 C 81 % 1011.3 hPa 0.0 l/m 0.8 km/h (0 Bft) NW 1.00 h 375 W/m 12.7 C 15.9 C 2.2 km/h (1 Bft)
17.06.2007 09:00 17.9 C 73 % 1011.2 hPa 0.0 l/m 2.8 km/h (1 Bft) W-NW 1.00 h 535 W/m 13.0 C 17.9 C 4.5 km/h (1 Bft)
17.06.2007 10:00 20.6 C 66 % 1010.8 hPa 0.0 l/m 1.8 km/h (1 Bft) W-NW 1.00 h 675 W/m 14.0 C 20.6 C 3.5 km/h (1 Bft)
17.06.2007 11:00 22.8 C 58 % 1010.2 hPa 0.0 l/m 1.6 km/h (1 Bft) S-SO 1.00 h 777 W/m 14.1 C 22.8 C 3.8 km/h (1 Bft)
17.06.2007 12:00 24.0 C 53 % 1009.7 hPa 0.0 l/m 2.8 km/h (1 Bft) W-NW 1.00 h 838 W/m 13.7 C 24.0 C 5.1 km/h (1 Bft)
17.06.2007 13:00 24.9 C 48 % 1009.2 hPa 0.0 l/m 2.5 km/h (1 Bft) O-SO 1.00 h 876 W/m 13.0 C 24.9 C 4.6 km/h (1 Bft)
17.06.2007 14:00 26.6 C 39 % 1008.4 hPa 0.0 l/m 4.3 km/h (1 Bft) S-SO 1.00 h 859 W/m 11.6 C 26.6 C 7.5 km/h (2 Bft)
17.06.2007 15:00 25.3 C 40 % 1007.9 hPa 0.0 l/m 4.9 km/h (1 Bft) W-SW 0.05 h 384 W/m 10.8 C 25.3 C 8.2 km/h (2 Bft)
17.06.2007 16:00 25.1 C 44 % 1007.5 hPa 0.0 l/m 1.1 km/h (0 Bft) W-SW 0.12 h 312 W/m 11.8 C 25.1 C 2.7 km/h (1 Bft)
17.06.2007 17:00 24.5 C 52 % 1006.9 hPa 0.0 l/m 0.9 km/h (0 Bft) O-SO 0.00 h 206 W/m 13.9 C 24.5 C 1.9 km/h (1 Bft)
17.06.2007 18:00 24.4 C 52 % 1006.4 hPa 0.0 l/m 0.3 km/h (0 Bft) O-SO 0.00 h 173 W/m 13.9 C 24.4 C 0.7 km/h (0 Bft)
17.06.2007 19:00 23.3 C 62 % 1006.3 hPa 0.0 l/m 0.0 km/h (0 Bft) N 0.00 h 51 W/m 15.6 C 23.3 C 0.3 km/h (0 Bft)
17.06.2007 20:00 20.8 C 75 % 1006.8 hPa 0.2 l/m 0.5 km/h (0 Bft) W-SW 0.00 h 10 W/m 16.2 C 20.8 C 1.4 km/h (1 Bft)
17.06.2007 21:00 18.9 C 79 % 1007.4 hPa 0.2 l/m 1.6 km/h (1 Bft) W 0.00 h 0 W/m 15.1 C 18.9 C 3.0 km/h (1 Bft)
17.06.2007 22:00 17.6 C 84 % 1008.1 hPa 0.6 l/m 0.7 km/h (0 Bft) N-NW 0.00 h 0 W/m 14.9 C 17.6 C 2.1 km/h (1 Bft)
17.06.2007 23:00 16.6 C 94 % 1008.7 hPa 3.2 l/m 0.5 km/h (0 Bft) S-SO 0.00 h 0 W/m 15.6 C 16.6 C 1.2 km/h (1 Bft)
Min-Datum _ 17.06.07 17.06.07 14.06.07 - 11.06.07 - - - 17.06.07 17.06.07 11.06.07
_ Min-Zeit 05:49 14:52 18:00 - 00:03 - - - 15:28 05:49 00:04
Minimum _ 10.9 C 31 % 1002.5 hPa - 0.0 km/h (0 Bft) - - - 7.6 C 10.9 C 0.0 km/h (0 Bft)
Max-Datum _ 14.06.07 11.06.07 11.06.07 15.06.07 14.06.07 - 11.06.07 11.06.07 11.06.07 14.06.07 14.06.07
_ Max-Zeit 17:07 05:06 11:30 14:05 20:10 - 06:14 13:37 13:37 17:07 20:10
Maximum _ 30.4 C 100 % 1014.7 hPa 6.0 l/m 37.5 km/h
W (5 Bft)
- 0.02 h 1281 W/m 19.9 C 30.4 C 59.1 km/h
W (7 Bft)
Durchschnitt _ 19.1 C 80 % 1009.7 hPa #41.0 l/m 3.0 km/h (1 Bft) W #46:56 h 326 W/m 14.9 C 19.1 C 5.1 km/h (1 Bft)
© Kaiko 2007